Flight Track Log - Related Links

Times and Time Zones

All times are in EDT time to prevent confusion due to time zone crossing. See the AAY863 flight status page for this flight to view local times or setup timezone preferences in your user account.


Time Position Orientation Groundspeed Altitude Reporting Facility
EDT Latitude Longitude Course Direction KTS MPH feet Rate Location/Type
Thu 06:03:11 PM 41.8843 -91.7482 266° West 159 183 2,400  Level FlightAware ADS-B (SVBC / BLA)
Thu 06:03:27 PM 41.8824 -91.7701 262° West 177 204 2,700 1,636 Climbing FlightAware ADS-B (SVBC / BLA)
Thu 06:03:55 PM 41.8705 -91.7951 209° Southwest 173 199 3,600 1,714 Climbing FlightAware ADS-B (SVBC / BLA)
Thu 06:04:09 PM 41.8591 -91.7971 172° South 190 219 3,900 1,200 Climbing FlightAware ADS-B (SVBC / BLA)
Thu 06:04:25 PM 41.8455 -91.7905 156° South 219 252 4,200 1,548 Climbing FlightAware ADS-B (SVBC / BLA)
Thu 06:04:40 PM 41.8301 -91.7816 157° South 237 273 4,700 2,353 Climbing FlightAware ADS-B (SVBC / BLA)
Thu 06:05:16 PM 41.7921 -91.7595 156° South 259 298 6,200 2,706 Climbing FlightAware ADS-B (SVBC / BLA)
Thu 06:05:31 PM 41.7755 -91.7499 158° South 258 297 7,000 3,600 Climbing FlightAware ADS-B (SVBC / BLA)
Thu 06:05:46 PM 41.7586 -91.7411 160° South 252 290 8,000 3,480 Climbing FlightAware ADS-B (SVBC / BLA)
Thu 06:06:21 PM 41.7195 -91.7281 169° South 243 280 9,900 2,842 Climbing FlightAware ADS-B (SVBC / BLA)
Thu 06:07:02 PM 41.6735 -91.7153 165° South 261 300 11,600 2,357 Climbing FlightAware ADS-B (SVBC / BLA)
Thu 06:07:45 PM 41.6233 -91.6848 143° Southeast 296 341 13,200 2,219 Climbing FlightAware ADS-B (SVBC / BLA)
Thu 06:08:15 PM 41.5916 -91.6476 138° Southeast 312 359 14,300 2,077 Climbing FlightAware ADS-B (SVBC / BLA)
Thu 06:09:03 PM 41.5376 -91.5829 138° Southeast 329 379 15,900 1,769 Climbing FlightAware ADS-B (SVBC / BLA)
Thu 06:09:33 PM 41.5025 -91.5428 140° Southeast 350 403 16,600 1,808 Climbing FlightAware ADS-B (SVBC / BLA)
Thu 06:10:16 PM 41.4485 -91.4823 140° Southeast 360 414 18,100 1,909 Climbing FlightAware ADS-B (SVBC / BLA)
Thu 06:11:01 PM 41.3918 -91.4190 140° Southeast 372 428 19,400 1,768 Climbing FlightAware ADS-B (SVBC / BLA)
Thu 06:11:51 PM 41.3389 -91.3603 140° Southeast 370 426 20,900 1,752 Climbing Chicago Center
Thu 06:12:54 PM 41.2586 -91.2694 140° Southeast 365 420 22,700 1,536 Climbing Chicago Center
Thu 06:13:56 PM 41.1575 -91.1564 140° Southeast 394 453 24,100 1,306 Climbing Chicago Center
Thu 06:14:58 PM 41.0664 -91.0658 143° Southeast 406 467 25,400 1,258 Climbing Chicago Center
Thu 06:16:00 PM 40.9678 -90.9825 147° Southeast 416 479 26,700 1,210 Climbing Chicago Center
Thu 06:17:02 PM 40.8711 -90.8917 145° Southeast 426 490 27,900 1,065 Climbing Chicago Center
Thu 06:18:04 PM 40.7739 -90.7931 142° Southeast 438 504 28,900 1,113 Climbing Chicago Center
Thu 06:19:06 PM 40.6764 -90.6883 141° Southeast 449 517 30,200 625 Climbing Chicago Center
Thu 06:25:16 PM 40.0539 -90.0512 140° Southeast 442 509 33,400 588 Climbing FlightAware ADS-B (LFOE / EVX)
Thu 06:26:25 PM 39.9536 -89.9589 140° Southeast 450 518 34,500 1,038 Climbing Kansas City Center
Thu 06:27:29 PM 39.8489 -89.8900 153° Southeast 429 494 35,700 337 Climbing Kansas City Center
Thu 06:33:50 PM 39.1477 -89.4205 153° Southeast 441 507 37,000 189 Climbing FlightAware ADS-B (LFOE / EVX)
Thu 06:34:21 PM 39.0878 -89.3808 153° Southeast 442 509 37,000  Level FlightAware ADS-B (LFOE / EVX)
Thu 06:35:45 PM 38.9444 -89.2867 153° Southeast 442 509 37,000  Level Kansas City Center
Thu 06:36:46 PM 38.8303 -89.2089 152° Southeast 445 512 37,000  Level Kansas City Center
Thu 06:37:49 PM 38.7203 -89.1375 153° Southeast 445 512 37,000  Level Kansas City Center
Thu 06:38:51 PM 38.6094 -89.0683 154° Southeast 444 511 37,000  Level Kansas City Center
Thu 06:39:51 PM 38.4864 -88.9867 153° Southeast 444 511 37,000  Level Kansas City Center
Thu 06:40:55 PM 38.3758 -88.9144 153° Southeast 444 511 37,000  Level Kansas City Center
Thu 06:41:56 PM 38.2794 -88.8528 153° Southeast 444 511 37,000  Level Kansas City Center
Thu 06:43:00 PM 38.1683 -88.7803 153° Southeast 444 511 37,000  Level Kansas City Center
Thu 06:44:00 PM 38.0342 -88.6953 153° Southeast 445 512 37,000  Level Kansas City Center
Thu 06:45:03 PM 37.9253 -88.6250 153° Southeast 445 512 37,000  Level Kansas City Center
Thu 06:46:04 PM 37.8106 -88.5522 153° Southeast 453 521 37,000  Level Kansas City Center
Thu 06:47:06 PM 37.6978 -88.4800 153° Southeast 453 521 37,000  Level Kansas City Center
Thu 06:47:45 PM 37.6125 -88.4275 154° Southeast 457 526 37,000  Level Memphis Center
Thu 06:48:47 PM 37.4978 -88.3561 154° Southeast 457 526 37,000  Level Memphis Center
Thu 06:49:49 PM 37.3831 -88.2817 153° Southeast 457 526 37,000  Level Memphis Center
Thu 06:50:51 PM 37.2694 -88.2100 153° Southeast 457 526 37,000  Level Memphis Center
Thu 06:51:53 PM 37.1300 -88.1239 154° Southeast 460 529 37,000  Level Memphis Center
Thu 06:52:55 PM 37.0161 -88.0528 153° Southeast 460 529 37,000  Level Memphis Center
Thu 06:53:57 PM 36.8983 -87.9797 154° Southeast 464 534 37,000  Level Memphis Center
Thu 06:54:59 PM 36.7817 -87.9067 153° Southeast 464 534 37,000  Level Memphis Center
Thu 06:56:01 PM 36.6642 -87.8333 153° Southeast 465 535 37,000  Level Memphis Center
Thu 06:57:02 PM 36.5461 -87.7622 154° Southeast 465 535 37,000  Level Memphis Center
Thu 06:58:04 PM 36.4281 -87.6897 154° Southeast 466 536 37,000  Level Memphis Center
Thu 06:59:06 PM 36.2906 -87.6064 154° Southeast 467 537 37,000  Level Memphis Center
Thu 07:04:30 PM 35.6565 -87.2245 154° Southeast 478 550 37,000  Level FlightAware ADS-B (KMDQ)
Thu 07:06:01 PM 35.4751 -87.1165 154° Southeast 483 556 37,000  Level FlightAware ADS-B (KMDQ)
Thu 07:06:42 PM 35.3928 -87.0675 154° Southeast 484 557 37,000  Level FlightAware ADS-B (KMDQ)
Thu 07:07:24 PM 35.3062 -87.0163 154° Southeast 484 557 37,000  Level FlightAware ADS-B (KMDQ)
Thu 07:08:02 PM 35.2305 -86.9716 154° Southeast 484 557 37,000  Level FlightAware ADS-B (KMDQ)
Thu 07:08:38 PM 35.1630 -86.9318 154° Southeast 485 558 37,000  Level FlightAware ADS-B (KMDQ)
Thu 07:09:44 PM 35.0224 -86.8492 154° Southeast 487 560 37,000  Level FlightAware ADS-B (KMDQ)
Thu 07:10:24 PM 34.9458 -86.8043 154° Southeast 488 562 37,000  Level FlightAware ADS-B (KMDQ)
Thu 07:11:02 PM 34.8647 -86.7568 154° Southeast 487 560 37,000  Level FlightAware ADS-B (KMDQ)
Thu 07:11:45 PM 34.7790 -86.7068 154° Southeast 487 560 37,000  Level FlightAware ADS-B (KMDQ)
Thu 07:12:24 PM 34.6988 -86.6602 154° Southeast 487 560 37,000  Level FlightAware ADS-B (KMDQ)
Thu 07:13:04 PM 34.6178 -86.6131 154° Southeast 487 560 37,000  Level FlightAware ADS-B (KMDQ)
Thu 07:13:44 PM 34.5367 -86.5660 154° Southeast 487 560 37,000  Level FlightAware ADS-B (KMDQ)
Thu 07:14:24 PM 34.4556 -86.5192 154° Southeast 487 560 37,000  Level FlightAware ADS-B (KMDQ)
Thu 07:15:05 PM 34.3710 -86.4704 154° Southeast 487 560 37,000  Level FlightAware ADS-B (KMDQ)
Thu 07:15:44 PM 34.2901 -86.4239 155° Southeast 485 558 37,000  Level FlightAware ADS-B (KMDQ)
Thu 07:16:23 PM 34.2133 -86.3798 155° Southeast 485 558 37,000 77 Level FlightAware ADS-B (KMDQ)
Thu 07:17:02 PM 34.1339 -86.3342 155° Southeast 485 558 37,100 296 Climbing FlightAware ADS-B (KMDQ)
Thu 07:17:44 PM 34.0473 -86.2846 155° Southeast 488 562 37,400 659 Climbing FlightAware ADS-B (KMDQ)
Thu 07:18:24 PM 33.9647 -86.2375 155° Southeast 488 562 38,000 609 Climbing FlightAware ADS-B (KMDQ)
Thu 07:19:52 PM 33.7972 -86.1386 154° Southeast 484 557 38,700 405 Climbing Atlanta Center
Thu 07:20:52 PM 33.6731 -86.0706 155° Southeast 484 557 39,000 150 Climbing Atlanta Center
Thu 07:21:52 PM 33.5386 -85.9928 154° Southeast 484 557 39,000  Level Atlanta Center
Thu 07:22:52 PM 33.4147 -85.9203 154° Southeast 484 557 39,000  Level Atlanta Center
Thu 07:23:52 PM 33.2903 -85.8556 157° South 484 557 39,000  Level Atlanta Center
Thu 07:24:52 PM 33.1661 -85.7833 154° Southeast 489 563 39,000  Level Atlanta Center
Thu 07:25:00 PM 33.2493 -85.8124 154° Southeast  Level FlightAware Approximate
Thu 07:25:52 PM 33.0419 -85.7164 156° South 489 563 39,000  Level Atlanta Center
Thu 07:26:52 PM 32.9133 -85.6422 154° Southeast 494 568 39,000  Level Atlanta Center
Thu 07:27:52 PM 32.8014 -85.5833 156° South 501 577 39,000  Level Atlanta Center
Thu 07:28:53 PM 32.6731 -85.5119 155° Southeast 501 577 39,000  Level Atlanta Center
Thu 07:29:52 PM 32.5486 -85.4408 154° Southeast 501 577 39,000  Level Atlanta Center
Thu 07:30:52 PM 32.4239 -85.3750 156° South 496 571 39,000  Level Atlanta Center
Thu 07:31:52 PM 32.2953 -85.3042 155° Southeast 501 577 39,000  Level Atlanta Center
Thu 07:32:52 PM 32.1667 -85.2339 155° Southeast 501 577 39,000  Level Atlanta Center
Thu 07:34:33 PM 31.9403 -85.1131 156° South 501 577 39,000  Level Jacksonville Center
Thu 07:35:33 PM 31.8286 -85.0517 155° Southeast 501 577 39,000  Level Jacksonville Center
Thu 07:36:33 PM 31.7003 -84.9853 156° South 496 571 39,000  Level Jacksonville Center
Thu 07:37:33 PM 31.5700 -84.9164 156° South 503 579 39,000  Level Jacksonville Center
Thu 07:38:33 PM 31.4436 -84.8481 155° Southeast 503 579 39,000  Level Jacksonville Center
Thu 07:39:33 PM 31.3172 -84.7797 155° Southeast 503 579 39,000  Level Jacksonville Center
Thu 07:40:33 PM 31.1889 -84.7114 156° South 503 579 39,000  Level Jacksonville Center
Thu 07:41:33 PM 31.0606 -84.6411 155° Southeast 503 579 39,000  Level Jacksonville Center
Thu 07:42:33 PM 30.9361 -84.5614 151° Southeast 503 579 39,000  Level Jacksonville Center
Thu 07:43:33 PM 30.8142 -84.4842 151° Southeast 503 579 39,000  Level Jacksonville Center
Thu 07:44:33 PM 30.6897 -84.4097 153° Southeast 508 585 39,000  Level Jacksonville Center
Thu 07:45:33 PM 30.5675 -84.3306 151° Southeast 508 585 39,000  Level Jacksonville Center
Thu 07:46:33 PM 30.4450 -84.2539 152° Southeast 503 579 39,000 -50 Level Jacksonville Center
Thu 07:47:33 PM 30.3122 -84.1750 153° Southeast 497 572 38,900 -50 Descending Jacksonville Center
Thu 07:48:33 PM 30.1897 -84.0967 151° Southeast 497 572 38,900  Level Jacksonville Center
Thu 07:49:33 PM 30.0736 -84.0303 154° Southeast 497 572 38,900  Level Jacksonville Center
Thu 07:50:33 PM 29.9489 -83.9544 152° Southeast 503 579 38,900  Level Jacksonville Center
Thu 07:51:33 PM 29.8264 -83.8789 152° Southeast 508 585 38,900 -150 Level Jacksonville Center
Thu 07:52:33 PM 29.7017 -83.8036 152° Southeast 508 585 38,600 -1,600 Descending Jacksonville Center
Thu 07:53:33 PM 29.5747 -83.7261 152° Southeast 508 585 35,700 -4,150 Descending Jacksonville Center
Thu 07:54:33 PM 29.4500 -83.6508 152° Southeast 508 585 30,300 -4,000 Descending Jacksonville Center
Thu 07:55:33 PM 29.3253 -83.5739 152° Southeast 508 585 27,700 -1,950 Descending Jacksonville Center
Thu 07:56:33 PM 29.2025 -83.4992 152° Southeast 508 585 26,400 -1,400 Descending Jacksonville Center
Thu 07:58:33 PM 28.9650 -83.3506 151° Southeast 489 563 23,500 -1,600 Descending Jacksonville Center
Thu 07:59:33 PM 28.8486 -83.2742 150° Southeast 489 563 21,600 -2,100 Descending Jacksonville Center
Thu 08:00:33 PM 28.7361 -83.2003 150° Southeast 477 549 19,300 -2,150 Descending Jacksonville Center
Thu 08:01:33 PM 28.6275 -83.1339 152° Southeast 464 534 17,300 -2,400 Descending Jacksonville Center
Thu 08:02:03 PM 28.5667 -83.1000 154° Southeast 413 475 15,700 -2,506 Descending Tampa TRACON
Thu 08:02:52 PM 28.4833 -83.0500 152° Southeast 395 455 14,000 -2,147 Descending Tampa TRACON
Thu 08:03:52 PM 28.4000 -82.9833 145° Southeast 377 434 11,800 -1,950 Descending Tampa TRACON
Thu 08:04:52 PM 28.3167 -82.9333 152° Southeast 347 399 10,100 -950 Descending Tampa TRACON
Thu 08:05:52 PM 28.2500 -82.8833 147° Southeast 272 313 9,900 -900 Descending Tampa TRACON
Thu 08:06:52 PM 28.1833 -82.8500 156° South 250 288 8,300 -1,700 Descending Tampa TRACON
Thu 08:07:52 PM 28.1000 -82.8333 170° South 258 297 6,500 -1,400 Descending Tampa TRACON
Thu 08:08:52 PM 28.0333 -82.8167 168° South 253 291 5,500 -950 Descending Tampa TRACON
Thu 08:09:52 PM 27.9833 -82.8000 164° South 203 234 4,600 -1,050 Descending Tampa TRACON
Thu 08:10:52 PM 27.9167 -82.8000 180° South 210 242 3,400 -850 Descending Tampa TRACON
Thu 08:11:52 PM 27.8667 -82.7833 164° South 203 234 2,900 -350 Descending Tampa TRACON
Thu 08:12:52 PM 27.8167 -82.7667 164° South 166 191 2,700 -300 Descending Tampa TRACON
Thu 08:13:52 PM 27.8000 -82.7333 119° Southeast 166 191 2,300 -350 Descending Tampa TRACON
Thu 08:14:52 PM 27.8000 -82.6833 90° East 143 165 2,000 -400 Descending Tampa TRACON
Thu 08:15:52 PM 27.8167 -82.6667 41° Northeast 131 151 1,500 -550 Descending Tampa TRACON
Thu 08:16:52 PM 27.8500 -82.6833 336° Northwest 130 150 900 -600 Descending Tampa TRACON

Login

Don't have an account? Register now (free) for customized features, flight alerts, and more!